Time,TemperatureF,DewpointF,PressureIn,WindDirection,WindDirectionDegrees,WindSpeedMPH,WindSpeedGustMPH,Humidity,HourlyPrecipIn,Conditions,Clouds,dailyrainin,SoftwareType,DateUTC
2013-02-21 00:00:00,34.7,32.9,29.85,South,180,0.0,0.4,93,0.00,,,0.05,WUHU216HW,2013-02-21 08:00:00,
2013-02-21 00:05:00,34.2,32.3,29.85,East,90,0.9,0.9,93,0.00,,,0.00,WUHU216HW,2013-02-21 08:05:00,
2013-02-21 00:10:00,33.8,32.0,29.86,NNE,23,0.4,0.9,93,0.00,,,0.00,WUHU216HW,2013-02-21 08:10:00,
2013-02-21 00:15:00,33.5,31.3,29.86,NNE,23,0.0,0.7,92,0.00,,,0.00,WUHU216HW,2013-02-21 08:15:00,
2013-02-21 00:20:00,33.7,31.8,29.85,East,90,0.0,0.2,93,0.00,,,0.00,WUHU216HW,2013-02-21 08:20:00,
2013-02-21 00:25:00,33.5,31.3,29.86,SSW,203,0.2,0.4,92,0.00,,,0.00,WUHU216HW,2013-02-21 08:25:00,
2013-02-21 00:30:00,33.1,31.1,29.85,SE,135,0.4,0.9,92,0.00,,,0.00,WUHU216HW,2013-02-21 08:30:00,
2013-02-21 00:35:00,33.5,31.3,29.85,SE,135,0.0,0.9,92,0.00,,,0.00,WUHU216HW,2013-02-21 08:35:00,
2013-02-21 00:40:00,33.5,31.3,29.85,South,180,0.4,0.4,92,0.00,,,0.00,WUHU216HW,2013-02-21 08:40:00,
2013-02-21 00:45:00,33.1,31.1,29.85,South,180,0.0,0.4,92,0.00,,,0.00,WUHU216HW,2013-02-21 08:45:00,
2013-02-21 00:50:00,32.8,30.7,29.86,SSW,203,0.0,0.4,92,0.00,,,0.00,WUHU216HW,2013-02-21 08:50:00,
2013-02-21 00:55:00,32.8,31.0,29.86,ESE,113,0.0,0.0,93,0.00,,,0.00,WUHU216HW,2013-02-21 08:55:00,
2013-02-21 01:00:00,32.9,31.2,29.86,ESE,113,0.0,0.0,93,0.00,,,0.00,WUHU216HW,2013-02-21 09:00:00,
2013-02-21 01:05:00,33.3,31.4,29.86,ESE,113,0.0,0.0,93,0.00,,,0.00,WUHU216HW,2013-02-21 09:05:00,
2013-02-21 01:10:00,33.5,31.3,29.87,WSW,248,0.2,0.4,92,0.00,,,0.00,WUHU216HW,2013-02-21 09:10:00,
2013-02-21 01:15:00,33.5,31.6,29.87,WSW,248,0.0,0.4,93,0.00,,,0.00,WUHU216HW,2013-02-21 09:15:00,
2013-02-21 01:20:00,33.7,32.0,29.87,East,90,0.0,0.4,94,0.00,,,0.00,WUHU216HW,2013-02-21 09:20:00,
2013-02-21 01:25:00,33.8,32.2,29.88,SSW,203,0.7,0.7,94,0.00,,,0.00,WUHU216HW,2013-02-21 09:25:00,
2013-02-21 01:30:00,34.0,32.4,29.88,NNW,338,0.2,1.3,94,0.00,,,0.00,WUHU216HW,2013-02-21 09:30:00,
2013-02-21 01:35:00,34.0,32.4,29.88,ESE,113,0.2,1.3,94,0.00,,,0.00,WUHU216HW,2013-02-21 09:35:00,
2013-02-21 01:40:00,34.0,32.4,29.88,East,90,0.0,0.7,94,0.00,,,0.00,WUHU216HW,2013-02-21 09:40:00,
2013-02-21 01:45:00,34.2,32.6,29.87,SSW,203,0.7,1.1,94,0.00,,,0.00,WUHU216HW,2013-02-21 09:45:00,
2013-02-21 01:50:00,34.2,32.6,29.88,SSW,203,0.0,1.1,94,0.00,,,0.00,WUHU216HW,2013-02-21 09:50:00,
2013-02-21 01:55:00,34.2,32.6,29.88,SSE,158,1.1,1.1,94,0.00,,,0.00,WUHU216HW,2013-02-21 09:55:00,
2013-02-21 02:00:00,34.4,32.8,29.88,SW,225,0.2,1.1,94,0.00,,,0.00,WUHU216HW,2013-02-21 10:00:00,
2013-02-21 02:05:00,34.4,32.8,29.88,NNW,338,0.0,0.7,94,0.00,,,0.00,WUHU216HW,2013-02-21 10:05:00,
2013-02-21 02:10:00,34.4,32.8,29.89,NNW,338,0.0,0.4,94,0.00,,,0.00,WUHU216HW,2013-02-21 10:10:00,
2013-02-21 02:15:00,34.6,32.9,29.89,North,0,0.0,0.9,94,0.00,,,0.00,WUHU216HW,2013-02-21 10:15:00,
2013-02-21 02:20:00,34.6,32.9,29.87,SSE,158,1.6,1.6,94,0.01,,,0.00,WUHU216HW,2013-02-21 10:20:00,
2013-02-21 02:25:00,34.7,33.1,29.87,WSW,248,1.1,1.6,94,0.01,,,0.02,WUHU216HW,2013-02-21 10:25:00,
2013-02-21 02:30:00,34.9,33.3,29.88,East,90,0.9,1.8,94,0.01,,,0.02,WUHU216HW,2013-02-21 10:30:00,
2013-02-21 02:35:00,34.9,33.3,29.88,ESE,113,0.0,1.8,94,0.01,,,0.02,WUHU216HW,2013-02-21 10:35:00,
2013-02-21 02:40:00,34.9,33.3,29.88,ESE,113,0.7,1.1,94,0.01,,,0.02,WUHU216HW,2013-02-21 10:40:00,
2013-02-21 02:45:00,34.9,33.3,29.88,SW,225,0.7,1.1,94,0.01,,,0.02,WUHU216HW,2013-02-21 10:45:00,
2013-02-21 02:50:00,35.1,33.5,29.88,SE,135,0.4,0.9,94,0.01,,,0.02,WUHU216HW,2013-02-21 10:50:00,
2013-02-21 02:55:00,35.1,33.5,29.88,ENE,68,0.0,0.9,94,0.01,,,0.02,WUHU216HW,2013-02-21 10:55:00,
2013-02-21 03:00:00,35.3,33.7,29.87,East,90,0.7,1.1,94,0.01,,,0.02,WUHU216HW,2013-02-21 11:00:00,
2013-02-21 03:05:00,35.5,33.8,29.88,WSW,248,0.2,1.1,94,0.01,,,0.02,WUHU216HW,2013-02-21 11:05:00,
2013-02-21 03:10:00,35.6,34.0,29.87,SSE,158,1.6,1.6,94,0.01,,,0.02,WUHU216HW,2013-02-21 11:10:00,
2013-02-21 03:15:00,35.6,34.0,29.88,SW,225,0.9,1.6,94,0.02,,,0.02,WUHU216HW,2013-02-21 11:15:00,
2013-02-21 03:20:00,35.6,34.0,29.89,West,270,0.0,1.1,94,0.01,,,0.02,WUHU216HW,2013-02-21 11:20:00,
2013-02-21 03:25:00,35.6,34.0,29.89,NNW,338,0.2,1.1,94,0.01,,,0.02,WUHU216HW,2013-02-21 11:25:00,
2013-02-21 03:30:00,35.6,34.0,29.89,East,90,0.7,0.7,94,0.02,,,0.04,WUHU216HW,2013-02-21 11:30:00,
2013-02-21 03:35:00,35.6,34.0,29.88,SSW,203,0.9,1.1,94,0.02,,,0.04,WUHU216HW,2013-02-21 11:35:00,
2013-02-21 03:40:00,35.8,34.2,29.89,SSW,203,0.7,1.1,94,0.02,,,0.04,WUHU216HW,2013-02-21 11:40:00,
2013-02-21 03:45:00,35.8,34.2,29.88,SSW,203,0.0,0.7,94,0.02,,,0.04,WUHU216HW,2013-02-21 11:45:00,
2013-02-21 03:50:00,35.8,34.2,29.87,South,180,1.1,1.3,94,0.02,,,0.04,WUHU216HW,2013-02-21 11:50:00,
2013-02-21 03:55:00,35.8,34.2,29.87,SW,225,0.2,1.3,94,0.02,,,0.04,WUHU216HW,2013-02-21 11:55:00,
2013-02-21 04:00:00,36.0,34.4,29.87,SE,135,0.9,0.9,94,0.03,,,0.04,WUHU216HW,2013-02-21 12:00:00,
2013-02-21 04:05:00,36.0,34.4,29.87,South,180,0.0,1.1,94,0.03,,,0.04,WUHU216HW,2013-02-21 12:05:00,
2013-02-21 04:10:00,36.0,34.4,29.88,South,180,0.0,1.1,94,0.02,,,0.04,WUHU216HW,2013-02-21 12:10:00,
2013-02-21 04:15:00,36.0,34.4,29.88,East,90,0.4,0.4,94,0.02,,,0.04,WUHU216HW,2013-02-21 12:15:00,
2013-02-21 04:20:00,36.0,34.4,29.88,East,90,0.7,0.7,94,0.02,,,0.04,WUHU216HW,2013-02-21 12:20:00,
2013-02-21 04:25:00,36.2,34.6,29.88,East,90,0.0,0.9,94,0.01,,,0.04,WUHU216HW,2013-02-21 12:25:00,
2013-02-21 04:30:00,36.2,34.6,29.88,East,90,0.2,0.9,94,0.02,,,0.06,WUHU216HW,2013-02-21 12:30:00,
2013-02-21 04:35:00,36.4,34.7,29.88,ESE,113,1.3,1.3,94,0.02,,,0.06,WUHU216HW,2013-02-21 12:35:00,
2013-02-21 04:40:00,36.4,34.7,29.88,ESE,113,2.5,2.5,94,0.02,,,0.06,WUHU216HW,2013-02-21 12:40:00,
2013-02-21 04:45:00,36.9,35.3,29.88,SSE,158,1.1,2.5,94,0.02,,,0.06,WUHU216HW,2013-02-21 12:45:00,
2013-02-21 04:50:00,37.1,35.5,29.88,ENE,68,1.1,2.5,94,0.02,,,0.06,WUHU216HW,2013-02-21 12:50:00,
2013-02-21 04:55:00,37.3,35.6,29.88,SE,135,1.6,3.4,94,0.02,,,0.06,WUHU216HW,2013-02-21 12:55:00,
2013-02-21 05:00:00,37.4,35.8,29.88,East,90,1.8,3.4,94,0.01,,,0.06,WUHU216HW,2013-02-21 13:00:00,
2013-02-21 05:05:00,37.4,35.8,29.88,SSE,158,0.4,1.8,94,0.01,,,0.06,WUHU216HW,2013-02-21 13:05:00,
2013-02-21 05:10:00,37.3,35.6,29.88,SSE,158,0.7,0.7,94,0.01,,,0.06,WUHU216HW,2013-02-21 13:10:00,
2013-02-21 05:15:00,37.4,35.8,29.88,East,90,0.2,0.7,94,0.01,,,0.06,WUHU216HW,2013-02-21 13:15:00,
2013-02-21 05:20:00,37.4,35.8,29.89,East,90,0.9,1.8,94,0.01,,,0.06,WUHU216HW,2013-02-21 13:20:00,
2013-02-21 05:25:00,37.4,35.8,29.89,ENE,68,1.3,2.5,94,0.01,,,0.06,WUHU216HW,2013-02-21 13:25:00,
2013-02-21 05:30:00,37.6,36.0,29.89,SW,225,0.4,2.5,94,0.00,,,0.06,WUHU216HW,2013-02-21 13:30:00,
2013-02-21 05:35:00,37.6,36.0,29.89,ESE,113,0.7,2.0,94,0.00,,,0.06,WUHU216HW,2013-02-21 13:35:00,
2013-02-21 05:40:00,37.8,36.2,29.89,East,90,0.4,1.3,94,0.00,,,0.06,WUHU216HW,2013-02-21 13:40:00,
2013-02-21 05:45:00,37.8,36.2,29.89,SE,135,0.9,2.9,94,0.00,,,0.06,WUHU216HW,2013-02-21 13:45:00,
2013-02-21 05:50:00,38.0,36.6,29.88,SE,135,2.2,3.4,95,0.00,,,0.06,WUHU216HW,2013-02-21 13:50:00,
2013-02-21 05:55:00,38.0,36.6,29.89,SE,135,2.7,5.1,95,0.00,,,0.06,WUHU216HW,2013-02-21 13:55:00,
2013-02-21 06:00:00,38.2,36.8,29.89,SE,135,2.5,5.1,95,0.00,,,0.06,WUHU216HW,2013-02-21 14:00:00,
2013-02-21 06:05:00,38.3,37.0,29.89,South,180,2.5,5.6,95,0.00,,,0.06,WUHU216HW,2013-02-21 14:05:00,
2013-02-21 06:10:00,38.3,36.7,29.89,SE,135,2.2,5.6,94,0.00,,,0.06,WUHU216HW,2013-02-21 14:10:00,
2013-02-21 06:15:00,38.3,37.0,29.88,South,180,2.5,4.7,95,0.00,,,0.06,WUHU216HW,2013-02-21 14:15:00,
2013-02-21 06:20:00,38.5,36.9,29.89,SSE,158,3.8,5.4,94,0.00,,,0.06,WUHU216HW,2013-02-21 14:20:00,
2013-02-21 06:25:00,38.5,36.9,29.90,South,180,4.5,5.8,94,0.00,,,0.06,WUHU216HW,2013-02-21 14:25:00,
2013-02-21 06:30:00,38.5,36.9,29.90,SW,225,2.0,5.8,94,0.00,,,0.06,WUHU216HW,2013-02-21 14:30:00,
2013-02-21 06:35:00,38.7,37.1,29.90,South,180,4.0,5.4,94,0.00,,,0.06,WUHU216HW,2013-02-21 14:35:00,
2013-02-21 06:40:00,38.7,37.1,29.90,SE,135,2.5,5.4,94,0.00,,,0.06,WUHU216HW,2013-02-21 14:40:00,
2013-02-21 06:45:00,38.9,37.3,29.90,South,180,3.1,5.4,94,0.00,,,0.06,WUHU216HW,2013-02-21 14:45:00,
2013-02-21 06:50:00,38.9,37.3,29.90,SSE,158,4.7,5.1,94,0.00,,,0.06,WUHU216HW,2013-02-21 14:50:00,
2013-02-21 06:55:00,39.1,37.4,29.89,SSE,158,2.5,5.1,94,0.00,,,0.06,WUHU216HW,2013-02-21 14:55:00,
2013-02-21 07:00:00,38.9,37.3,29.89,SE,135,3.1,5.4,94,0.00,,,0.06,WUHU216HW,2013-02-21 15:00:00,
2013-02-21 07:05:00,38.9,37.3,29.89,SSE,158,6.3,6.3,94,0.00,,,0.06,WUHU216HW,2013-02-21 15:05:00,
2013-02-21 07:10:00,38.9,37.3,29.90,SSW,203,2.7,6.3,94,0.00,,,0.06,WUHU216HW,2013-02-21 15:10:00,
2013-02-21 07:15:00,38.9,37.3,29.91,SW,225,2.5,4.0,94,0.00,,,0.06,WUHU216HW,2013-02-21 15:15:00,
2013-02-21 07:20:00,39.1,37.4,29.90,SE,135,2.5,4.0,94,0.00,,,0.06,WUHU216HW,2013-02-21 15:20:00,
2013-02-21 07:25:00,39.2,37.6,29.90,SE,135,3.6,5.4,94,0.00,,,0.06,WUHU216HW,2013-02-21 15:25:00,
2013-02-21 07:30:00,39.2,37.6,29.90,SSW,203,0.4,5.4,94,0.00,,,0.06,WUHU216HW,2013-02-21 15:30:00,
2013-02-21 07:35:00,39.2,37.6,29.91,SSE,158,6.0,6.0,94,0.00,,,0.06,WUHU216HW,2013-02-21 15:35:00,
2013-02-21 07:40:00,39.2,37.6,29.91,SSW,203,4.3,7.4,94,0.00,,,0.06,WUHU216HW,2013-02-21 15:40:00,
2013-02-21 07:45:00,39.4,37.8,29.91,SSE,158,3.6,7.4,94,0.00,,,0.06,WUHU216HW,2013-02-21 15:45:00,
2013-02-21 07:50:00,39.4,37.5,29.91,SSE,158,4.7,6.3,93,0.00,,,0.06,WUHU216HW,2013-02-21 15:50:00,
2013-02-21 07:55:00,39.4,37.5,29.91,SE,135,6.3,6.3,93,0.00,,,0.06,WUHU216HW,2013-02-21 15:55:00,
2013-02-21 08:00:00,39.4,37.5,29.91,South,180,2.7,7.4,93,0.00,,,0.06,WUHU216HW,2013-02-21 16:00:00,
2013-02-21 08:05:00,39.6,37.7,29.91,SSW,203,2.0,7.4,93,0.00,,,0.06,WUHU216HW,2013-02-21 16:05:00,
2013-02-21 08:10:00,39.4,37.5,29.91,SSE,158,3.6,7.2,93,0.00,,,0.06,WUHU216HW,2013-02-21 16:10:00,
2013-02-21 08:15:00,39.4,37.8,29.91,SSE,158,3.1,5.4,94,0.00,,,0.06,WUHU216HW,2013-02-21 16:15:00,
2013-02-21 08:20:00,39.6,38.0,29.91,SW,225,3.4,6.9,94,0.00,,,0.06,WUHU216HW,2013-02-21 16:20:00,
2013-02-21 08:25:00,39.6,37.7,29.91,SSW,203,3.8,6.9,93,0.00,,,0.06,WUHU216HW,2013-02-21 16:25:00,
2013-02-21 08:30:00,39.6,38.0,29.91,South,180,3.4,3.8,94,0.00,,,0.06,WUHU216HW,2013-02-21 16:30:00,
2013-02-21 08:35:00,39.6,37.7,29.91,ESE,113,1.1,4.0,93,0.00,,,0.06,WUHU216HW,2013-02-21 16:35:00,
2013-02-21 08:41:00,39.6,37.7,29.91,ESE,113,1.3,4.7,93,0.00,,,0.06,WUHU216HW,2013-02-21 16:41:00,
2013-02-21 08:45:00,39.6,37.7,29.91,South,180,2.7,4.7,93,0.00,,,0.06,WUHU216HW,2013-02-21 16:45:00,
2013-02-21 08:50:00,39.6,37.7,29.91,SSE,158,2.0,2.9,93,0.00,,,0.06,WUHU216HW,2013-02-21 16:50:00,
2013-02-21 08:56:00,39.6,37.7,29.91,South,180,3.6,4.0,93,0.00,,,0.06,WUHU216HW,2013-02-21 16:56:00,
2013-02-21 09:01:00,39.6,37.7,29.91,ESE,113,4.3,4.3,93,0.01,,,0.06,WUHU216HW,2013-02-21 17:01:00,
2013-02-21 09:06:00,39.6,37.4,29.91,ESE,113,2.0,4.7,92,0.01,,,0.07,WUHU216HW,2013-02-21 17:06:00,
2013-02-21 09:11:00,39.6,37.7,29.92,East,90,0.7,4.7,93,0.01,,,0.07,WUHU216HW,2013-02-21 17:11:00,
2013-02-21 09:16:00,39.6,37.7,29.92,ESE,113,0.7,2.5,93,0.02,,,0.08,WUHU216HW,2013-02-21 17:16:00,
2013-02-21 09:20:00,39.4,37.5,29.92,South,180,1.6,4.0,93,0.02,,,0.08,WUHU216HW,2013-02-21 17:20:00,
2013-02-21 09:25:00,39.4,37.5,29.92,SE,135,1.6,4.0,93,0.02,,,0.08,WUHU216HW,2013-02-21 17:25:00,
2013-02-21 09:30:00,39.2,37.4,29.92,ESE,113,2.2,4.9,93,0.02,,,0.08,WUHU216HW,2013-02-21 17:30:00,
2013-02-21 09:35:00,39.4,37.5,29.92,East,90,0.4,4.9,93,0.02,,,0.08,WUHU216HW,2013-02-21 17:35:00,
2013-02-21 09:41:00,39.4,37.5,29.92,SSE,158,2.7,4.0,93,0.03,,,0.09,WUHU216HW,2013-02-21 17:41:00,
2013-02-21 09:46:00,39.6,37.7,29.91,SSW,203,1.8,4.0,93,0.03,,,0.09,WUHU216HW,2013-02-21 17:46:00,
2013-02-21 09:51:00,39.6,37.7,29.91,WSW,248,4.5,4.5,93,0.04,,,0.09,WUHU216HW,2013-02-21 17:51:00,
2013-02-21 09:56:00,39.6,37.7,29.91,SSE,158,0.9,4.5,93,0.04,,,0.10,WUHU216HW,2013-02-21 17:56:00,
2013-02-21 10:01:00,39.6,37.7,29.91,SE,135,6.0,6.0,93,0.03,,,0.10,WUHU216HW,2013-02-21 18:01:00,
2013-02-21 10:06:00,39.8,37.9,29.92,SE,135,3.4,6.0,93,0.03,,,0.10,WUHU216HW,2013-02-21 18:06:00,
2013-02-21 10:11:00,39.6,37.7,29.92,SSE,158,4.5,6.5,93,0.03,,,0.10,WUHU216HW,2013-02-21 18:11:00,
2013-02-21 10:16:00,39.6,37.7,29.92,SSE,158,2.7,6.5,93,0.02,,,0.10,WUHU216HW,2013-02-21 18:16:00,
2013-02-21 10:21:00,39.6,37.7,29.92,SE,135,4.3,6.3,93,0.02,,,0.10,WUHU216HW,2013-02-21 18:21:00,
2013-02-21 10:26:00,39.8,37.9,29.92,SE,135,2.7,6.3,93,0.02,,,0.10,WUHU216HW,2013-02-21 18:26:00,
2013-02-21 10:31:00,40.1,38.3,29.92,SSW,203,2.9,4.9,93,0.02,,,0.10,WUHU216HW,2013-02-21 18:31:00,
2013-02-21 10:36:00,40.5,38.6,29.92,SSE,158,1.6,4.9,93,0.02,,,0.10,WUHU216HW,2013-02-21 18:36:00,
2013-02-21 10:41:00,40.7,38.0,29.92,SSW,203,2.9,5.1,90,0.01,,,0.10,WUHU216HW,2013-02-21 18:41:00,
2013-02-21 10:46:00,40.7,38.3,29.91,WSW,248,5.4,5.8,91,0.01,,,0.10,WUHU216HW,2013-02-21 18:46:00,
2013-02-21 10:51:00,41.0,38.6,29.91,South,180,2.0,5.8,91,0.00,,,0.10,WUHU216HW,2013-02-21 18:51:00,
2013-02-21 10:56:00,41.0,38.9,29.91,SSW,203,3.8,4.9,92,0.00,,,0.10,WUHU216HW,2013-02-21 18:56:00,
2013-02-21 11:01:00,41.2,39.1,29.91,SSW,203,2.5,4.9,92,0.00,,,0.10,WUHU216HW,2013-02-21 19:01:00,
2013-02-21 11:06:00,41.2,39.1,29.91,SW,225,2.5,3.6,92,0.00,,,0.10,WUHU216HW,2013-02-21 19:06:00,
2013-02-21 11:11:00,41.0,38.6,29.91,SW,225,3.4,3.6,91,0.00,,,0.10,WUHU216HW,2013-02-21 19:11:00,
2013-02-21 11:16:00,40.9,38.2,29.91,SW,225,3.1,4.7,90,0.00,,,0.10,WUHU216HW,2013-02-21 19:16:00,
2013-02-21 11:21:00,40.5,38.1,29.92,SW,225,4.7,6.0,91,0.00,,,0.10,WUHU216HW,2013-02-21 19:21:00,
2013-02-21 11:26:00,40.5,37.8,29.92,SSW,203,6.7,7.4,90,0.01,,,0.11,WUHU216HW,2013-02-21 19:26:00,
2013-02-21 11:31:00,40.1,37.7,29.92,SW,225,3.6,7.4,91,0.02,,,0.12,WUHU216HW,2013-02-21 19:31:00,
2013-02-21 11:36:00,40.0,37.5,29.92,South,180,1.6,5.4,91,0.02,,,0.12,WUHU216HW,2013-02-21 19:36:00,
2013-02-21 11:41:00,39.8,37.4,29.92,SSW,203,2.9,4.5,91,0.03,,,0.13,WUHU216HW,2013-02-21 19:41:00,
2013-02-21 11:46:00,39.6,37.4,29.92,SSW,203,5.1,5.1,92,0.03,,,0.13,WUHU216HW,2013-02-21 19:46:00,
2013-02-21 11:51:00,39.6,37.4,29.92,SE,135,3.1,5.1,92,0.03,,,0.13,WUHU216HW,2013-02-21 19:51:00,
2013-02-21 11:56:00,39.6,37.4,29.92,South,180,3.4,6.0,92,0.03,,,0.13,WUHU216HW,2013-02-21 19:56:00,
2013-02-21 12:01:00,39.6,37.7,29.91,SSE,158,4.0,6.0,93,0.03,,,0.13,WUHU216HW,2013-02-21 20:01:00,
2013-02-21 12:06:00,39.8,37.9,29.91,SE,135,1.3,4.0,93,0.03,,,0.13,WUHU216HW,2013-02-21 20:06:00,
2013-02-21 12:11:00,40.0,38.1,29.91,South,180,1.1,3.8,93,0.03,,,0.13,WUHU216HW,2013-02-21 20:11:00,
2013-02-21 12:16:00,40.0,38.1,29.91,South,180,1.6,5.4,93,0.03,,,0.13,WUHU216HW,2013-02-21 20:16:00,
2013-02-21 12:21:00,40.0,38.1,29.91,SSE,158,0.0,5.4,93,0.02,,,0.13,WUHU216HW,2013-02-21 20:21:00,
2013-02-21 12:26:00,40.0,38.1,29.91,SSE,158,4.9,4.9,93,0.02,,,0.13,WUHU216HW,2013-02-21 20:26:00,
2013-02-21 12:31:00,40.0,38.1,29.91,South,180,2.2,4.9,93,0.01,,,0.13,WUHU216HW,2013-02-21 20:31:00,
2013-02-21 12:36:00,40.0,37.8,29.91,ESE,113,0.7,2.9,92,0.01,,,0.13,WUHU216HW,2013-02-21 20:36:00,
2013-02-21 12:41:00,40.0,38.1,29.91,South,180,2.0,3.1,93,0.00,,,0.13,WUHU216HW,2013-02-21 20:41:00,
2013-02-21 12:46:00,40.0,37.5,29.91,ESE,113,1.1,3.1,91,0.00,,,0.13,WUHU216HW,2013-02-21 20:46:00,
2013-02-21 12:51:00,40.1,38.0,29.90,SSE,158,1.1,3.4,92,0.00,,,0.13,WUHU216HW,2013-02-21 20:51:00,
2013-02-21 12:56:00,40.3,38.2,29.90,ESE,113,1.1,3.4,92,0.00,,,0.13,WUHU216HW,2013-02-21 20:56:00,
2013-02-21 13:01:00,40.5,38.3,29.90,South,180,0.9,2.2,92,0.00,,,0.13,WUHU216HW,2013-02-21 21:01:00,
2013-02-21 13:06:00,40.7,38.5,29.90,SSE,158,3.1,3.1,92,0.00,,,0.13,WUHU216HW,2013-02-21 21:06:00,
2013-02-21 13:11:00,40.5,37.8,29.89,SE,135,2.7,3.4,90,0.00,,,0.13,WUHU216HW,2013-02-21 21:11:00,
2013-02-21 13:16:00,40.3,37.9,29.89,East,90,1.1,3.4,91,0.01,,,0.14,WUHU216HW,2013-02-21 21:16:00,
2013-02-21 13:21:00,40.3,37.9,29.89,East,90,0.9,1.6,91,0.01,,,0.14,WUHU216HW,2013-02-21 21:21:00,
2013-02-21 13:26:00,40.5,38.6,29.88,SSW,203,0.7,1.3,93,0.01,,,0.14,WUHU216HW,2013-02-21 21:26:00,
2013-02-21 13:31:00,40.5,38.3,29.88,SSE,158,0.0,1.3,92,0.01,,,0.14,WUHU216HW,2013-02-21 21:31:00,
2013-02-21 13:36:00,40.7,38.5,29.88,ESE,113,1.1,2.0,92,0.01,,,0.14,WUHU216HW,2013-02-21 21:36:00,
2013-02-21 13:41:00,40.7,38.5,29.87,ESE,113,0.7,2.0,92,0.01,,,0.14,WUHU216HW,2013-02-21 21:41:00,
2013-02-21 13:46:00,40.7,38.3,29.87,ESE,113,0.4,2.0,91,0.01,,,0.14,WUHU216HW,2013-02-21 21:46:00,
2013-02-21 13:51:00,41.0,38.9,29.87,NNE,23,0.7,1.8,92,0.01,,,0.14,WUHU216HW,2013-02-21 21:51:00,
2013-02-21 13:56:00,41.4,39.2,29.87,SE,135,0.9,1.3,92,0.01,,,0.14,WUHU216HW,2013-02-21 21:56:00,
2013-02-21 14:01:00,41.9,39.8,29.87,SE,135,1.8,2.0,92,0.01,,,0.14,WUHU216HW,2013-02-21 22:01:00,
2013-02-21 14:06:00,41.9,39.8,29.87,NE,45,0.0,2.0,92,0.01,,,0.14,WUHU216HW,2013-02-21 22:06:00,
2013-02-21 14:11:00,41.8,39.3,29.87,WSW,248,0.4,1.8,91,0.01,,,0.14,WUHU216HW,2013-02-21 22:11:00,
2013-02-21 14:16:00,41.6,39.2,29.87,SSE,158,0.0,1.1,91,0.00,,,0.14,WUHU216HW,2013-02-21 22:16:00,
2013-02-21 14:21:00,41.8,39.6,29.87,ESE,113,0.0,0.7,92,0.00,,,0.14,WUHU216HW,2013-02-21 22:21:00,
2013-02-21 14:26:00,41.8,39.6,29.87,ESE,113,1.8,2.0,92,0.00,,,0.14,WUHU216HW,2013-02-21 22:26:00,
2013-02-21 14:31:00,41.8,39.6,29.87,South,180,0.9,2.5,92,0.00,,,0.14,WUHU216HW,2013-02-21 22:31:00,
2013-02-21 14:36:00,41.8,39.6,29.87,SSE,158,1.8,2.5,92,0.00,,,0.14,WUHU216HW,2013-02-21 22:36:00,
2013-02-21 14:41:00,41.8,39.3,29.87,SE,135,0.4,1.8,91,0.00,,,0.14,WUHU216HW,2013-02-21 22:41:00,
2013-02-21 14:46:00,41.6,39.4,29.88,ENE,68,0.4,0.9,92,0.00,,,0.14,WUHU216HW,2013-02-21 22:46:00,
2013-02-21 14:51:00,41.6,39.4,29.88,East,90,1.3,1.3,92,0.00,,,0.14,WUHU216HW,2013-02-21 22:51:00,
2013-02-21 14:56:00,41.4,39.2,29.88,ESE,113,1.3,1.8,92,0.00,,,0.14,WUHU216HW,2013-02-21 22:56:00,
2013-02-21 15:01:00,41.4,38.7,29.88,South,180,2.7,6.3,90,0.00,,,0.14,WUHU216HW,2013-02-21 23:01:00,
2013-02-21 15:06:00,41.4,39.0,29.88,SSW,203,0.7,6.3,91,0.00,,,0.14,WUHU216HW,2013-02-21 23:06:00,
2013-02-21 15:11:00,41.4,39.2,29.88,ESE,113,1.1,3.8,92,0.00,,,0.14,WUHU216HW,2013-02-21 23:11:00,
2013-02-21 15:16:00,41.4,39.2,29.88,South,180,0.7,2.5,92,0.00,,,0.14,WUHU216HW,2013-02-21 23:16:00,
2013-02-21 15:21:00,41.6,39.4,29.88,ESE,113,1.3,2.5,92,0.00,,,0.14,WUHU216HW,2013-02-21 23:21:00,
2013-02-21 15:26:00,41.6,39.4,29.88,East,90,1.1,3.1,92,0.00,,,0.14,WUHU216HW,2013-02-21 23:26:00,
2013-02-21 15:31:00,41.6,39.4,29.88,SSE,158,0.4,3.1,92,0.00,,,0.14,WUHU216HW,2013-02-21 23:31:00,
2013-02-21 15:36:00,41.6,39.4,29.88,East,90,2.0,2.9,92,0.00,,,0.14,WUHU216HW,2013-02-21 23:36:00,
2013-02-21 15:41:00,41.4,39.2,29.88,SE,135,1.6,2.9,92,0.01,,,0.15,WUHU216HW,2013-02-21 23:41:00,
2013-02-21 15:46:00,41.4,39.2,29.88,SE,135,1.1,2.5,92,0.01,,,0.15,WUHU216HW,2013-02-21 23:46:00,
2013-02-21 15:51:00,41.4,39.2,29.88,SSE,158,1.8,4.7,92,0.01,,,0.15,WUHU216HW,2013-02-21 23:51:00,
2013-02-21 15:56:00,41.4,39.2,29.87,SE,135,2.2,4.7,92,0.01,,,0.15,WUHU216HW,2013-02-21 23:56:00,
2013-02-21 16:01:00,41.2,38.8,29.87,SSW,203,2.5,3.4,91,0.01,,,0.15,WUHU216HW,2013-02-22 00:01:00,
2013-02-21 16:06:00,41.4,39.0,29.87,ESE,113,2.7,6.3,91,0.01,,,0.15,WUHU216HW,2013-02-22 00:06:00,
2013-02-21 16:11:00,41.4,38.7,29.88,SSE,158,1.8,6.3,90,0.01,,,0.15,WUHU216HW,2013-02-22 00:11:00,
2013-02-21 16:16:00,41.4,39.0,29.88,SE,135,4.0,4.0,91,0.01,,,0.15,WUHU216HW,2013-02-22 00:16:00,
2013-02-21 16:21:00,41.4,39.0,29.88,South,180,0.9,4.0,91,0.01,,,0.15,WUHU216HW,2013-02-22 00:21:00,
2013-02-21 16:26:00,41.4,38.7,29.88,SSE,158,6.9,6.9,90,0.01,,,0.15,WUHU216HW,2013-02-22 00:26:00,
2013-02-21 16:31:00,41.4,38.7,29.88,SSE,158,2.2,6.9,90,0.01,,,0.15,WUHU216HW,2013-02-22 00:31:00,
2013-02-21 16:36:00,41.4,38.7,29.88,ENE,68,0.9,3.4,90,0.00,,,0.15,WUHU216HW,2013-02-22 00:36:00,
2013-02-21 16:41:00,41.2,38.8,29.88,SSW,203,0.9,2.7,91,0.00,,,0.15,WUHU216HW,2013-02-22 00:41:00,
2013-02-21 16:46:00,41.2,38.8,29.88,SE,135,0.4,2.7,91,0.00,,,0.15,WUHU216HW,2013-02-22 00:46:00,
2013-02-21 16:51:00,41.2,38.5,29.88,SE,135,0.9,2.7,90,0.00,,,0.15,WUHU216HW,2013-02-22 00:51:00,
2013-02-21 16:56:00,41.2,38.5,29.87,SE,135,0.9,2.7,90,0.00,,,0.15,WUHU216HW,2013-02-22 00:56:00,
2013-02-21 17:01:00,41.2,38.5,29.87,ESE,113,2.2,4.3,90,0.00,,,0.15,WUHU216HW,2013-02-22 01:01:00,
2013-02-21 17:06:00,41.2,38.8,29.87,ESE,113,0.7,4.3,91,0.00,,,0.15,WUHU216HW,2013-02-22 01:06:00,
2013-02-21 17:11:00,41.0,38.3,29.87,SW,225,1.8,4.0,90,0.00,,,0.15,WUHU216HW,2013-02-22 01:11:00,
2013-02-21 17:16:00,41.2,38.5,29.87,SE,135,1.1,4.0,90,0.00,,,0.15,WUHU216HW,2013-02-22 01:16:00,
2013-02-21 17:21:00,41.4,38.7,29.87,SSW,203,2.9,3.1,90,0.00,,,0.15,WUHU216HW,2013-02-22 01:21:00,
2013-02-21 17:26:00,41.4,38.7,29.88,SW,225,4.5,4.5,90,0.00,,,0.15,WUHU216HW,2013-02-22 01:26:00,
2013-02-21 17:31:00,41.4,38.7,29.88,SSE,158,0.9,4.5,90,0.00,,,0.15,WUHU216HW,2013-02-22 01:31:00,
2013-02-21 17:36:00,41.2,38.5,29.88,East,90,1.6,3.4,90,0.00,,,0.15,WUHU216HW,2013-02-22 01:36:00,
2013-02-21 17:41:00,41.4,38.4,29.88,SSE,158,2.2,2.9,89,0.00,,,0.15,WUHU216HW,2013-02-22 01:41:00,
2013-02-21 17:46:00,41.6,38.6,29.89,SSW,203,1.1,2.2,89,0.00,,,0.15,WUHU216HW,2013-02-22 01:46:00,
2013-02-21 17:51:00,41.6,38.6,29.89,SSW,203,2.9,6.7,89,0.00,,,0.15,WUHU216HW,2013-02-22 01:51:00,
2013-02-21 17:56:00,41.6,38.6,29.89,South,180,2.7,6.7,89,0.00,,,0.15,WUHU216HW,2013-02-22 01:56:00,
2013-02-21 18:01:00,41.6,38.6,29.89,South,180,2.2,3.6,89,0.00,,,0.15,WUHU216HW,2013-02-22 02:01:00,
2013-02-21 18:06:00,41.8,38.4,29.90,West,270,4.9,5.6,88,0.00,,,0.15,WUHU216HW,2013-02-22 02:06:00,
2013-02-21 18:11:00,41.9,38.4,29.90,SSE,158,8.7,8.7,87,0.00,,,0.15,WUHU216HW,2013-02-22 02:11:00,
2013-02-21 18:16:00,42.1,38.5,29.90,SE,135,3.8,8.7,87,0.00,,,0.15,WUHU216HW,2013-02-22 02:16:00,
2013-02-21 18:21:00,42.1,38.5,29.90,SSW,203,1.6,6.0,87,0.00,,,0.15,WUHU216HW,2013-02-22 02:21:00,
2013-02-21 18:26:00,41.9,38.4,29.90,SSE,158,2.9,3.8,87,0.00,,,0.15,WUHU216HW,2013-02-22 02:26:00,
2013-02-21 18:31:00,41.9,38.4,29.89,WSW,248,3.6,11.2,87,0.00,,,0.15,WUHU216HW,2013-02-22 02:31:00,
2013-02-21 18:36:00,41.9,38.4,29.89,WSW,248,1.3,11.2,87,0.00,,,0.15,WUHU216HW,2013-02-22 02:36:00,
2013-02-21 18:41:00,41.8,38.2,29.89,SSW,203,4.3,4.3,87,0.00,,,0.15,WUHU216HW,2013-02-22 02:41:00,
2013-02-21 18:46:00,41.9,38.4,29.89,SSW,203,1.8,4.7,87,0.00,,,0.15,WUHU216HW,2013-02-22 02:46:00,
2013-02-21 18:51:00,41.8,38.2,29.89,ESE,113,2.9,4.7,87,0.00,,,0.15,WUHU216HW,2013-02-22 02:51:00,
2013-02-21 18:56:00,41.8,38.2,29.89,South,180,6.3,7.6,87,0.00,,,0.15,WUHU216HW,2013-02-22 02:56:00,
2013-02-21 19:01:00,41.8,38.2,29.89,SSW,203,4.0,9.6,87,0.00,,,0.15,WUHU216HW,2013-02-22 03:01:00,
2013-02-21 19:06:00,41.6,38.0,29.89,SSE,158,2.9,9.6,87,0.00,,,0.15,WUHU216HW,2013-02-22 03:06:00,
2013-02-21 19:11:00,41.6,38.3,29.89,SSE,158,2.0,6.3,88,0.00,,,0.15,WUHU216HW,2013-02-22 03:11:00,
2013-02-21 19:16:00,41.4,37.8,29.89,South,180,3.4,5.4,87,0.00,,,0.15,WUHU216HW,2013-02-22 03:16:00,
2013-02-21 19:21:00,41.8,38.2,29.89,SSE,158,4.0,5.4,87,0.00,,,0.15,WUHU216HW,2013-02-22 03:21:00,
2013-02-21 19:26:00,41.8,38.2,29.89,SE,135,4.9,6.5,87,0.00,,,0.15,WUHU216HW,2013-02-22 03:26:00,
2013-02-21 19:31:00,41.8,38.2,29.89,SE,135,3.8,6.5,87,0.00,,,0.15,WUHU216HW,2013-02-22 03:31:00,
2013-02-21 19:36:00,41.8,38.2,29.89,South,180,3.8,4.7,87,0.00,,,0.15,WUHU216HW,2013-02-22 03:36:00,
2013-02-21 19:41:00,41.8,38.2,29.90,SSW,203,2.5,4.7,87,0.00,,,0.15,WUHU216HW,2013-02-22 03:41:00,
2013-02-21 19:46:00,41.8,38.4,29.90,SSE,158,2.5,6.7,88,0.00,,,0.15,WUHU216HW,2013-02-22 03:46:00,
2013-02-21 19:51:00,41.6,38.3,29.90,SSW,203,2.7,4.3,88,0.00,,,0.15,WUHU216HW,2013-02-22 03:51:00,
2013-02-21 19:56:00,41.6,38.3,29.90,SE,135,4.3,5.4,88,0.00,,,0.15,WUHU216HW,2013-02-22 03:56:00,
2013-02-21 20:01:00,41.8,38.4,29.90,SSE,158,6.5,6.5,88,0.00,,,0.15,WUHU216HW,2013-02-22 04:01:00,
2013-02-21 20:06:00,41.8,38.4,29.89,SSE,158,3.1,6.5,88,0.00,,,0.15,WUHU216HW,2013-02-22 04:06:00,
2013-02-21 20:11:00,41.8,38.4,29.89,SSE,158,4.5,7.8,88,0.00,,,0.15,WUHU216HW,2013-02-22 04:11:00,
2013-02-21 20:16:00,41.9,38.6,29.89,SSW,203,2.7,7.8,88,0.00,,,0.15,WUHU216HW,2013-02-22 04:16:00,
2013-02-21 20:21:00,41.8,38.4,29.89,SSE,158,2.0,7.8,88,0.00,,,0.15,WUHU216HW,2013-02-22 04:21:00,
2013-02-21 20:26:00,41.8,38.4,29.89,SW,225,4.9,7.8,88,0.00,,,0.15,WUHU216HW,2013-02-22 04:26:00,
2013-02-21 20:31:00,41.8,38.4,29.90,SSW,203,4.0,6.9,88,0.00,,,0.15,WUHU216HW,2013-02-22 04:31:00,
2013-02-21 20:36:00,41.8,38.4,29.90,SE,135,2.9,6.3,88,0.00,,,0.15,WUHU216HW,2013-02-22 04:36:00,
2013-02-21 20:41:00,41.8,38.4,29.91,WSW,248,3.4,5.8,88,0.00,,,0.15,WUHU216HW,2013-02-22 04:41:00,
2013-02-21 20:46:00,41.8,38.4,29.91,SW,225,2.5,3.4,88,0.00,,,0.15,WUHU216HW,2013-02-22 04:46:00,
2013-02-21 20:51:00,41.8,38.4,29.91,SW,225,1.8,2.9,88,0.00,,,0.15,WUHU216HW,2013-02-22 04:51:00,
2013-02-21 20:56:00,41.8,38.4,29.91,SSW,203,1.1,2.9,88,0.00,,,0.15,WUHU216HW,2013-02-22 04:56:00,
2013-02-21 21:00:00,41.8,38.4,29.92,SSE,158,1.8,2.5,88,0.00,,,0.15,WUHU216HW,2013-02-22 05:00:00,
2013-02-21 21:05:00,41.6,38.3,29.91,SSW,203,1.6,2.7,88,0.00,,,0.15,WUHU216HW,2013-02-22 05:05:00,
2013-02-21 21:10:00,41.6,38.3,29.92,SSW,203,1.3,4.0,88,0.00,,,0.15,WUHU216HW,2013-02-22 05:10:00,
2013-02-21 21:15:00,41.9,38.4,29.92,WSW,248,1.6,4.5,87,0.00,,,0.15,WUHU216HW,2013-02-22 05:15:00,
2013-02-21 21:20:00,42.1,38.5,29.92,South,180,2.7,4.5,87,0.00,,,0.15,WUHU216HW,2013-02-22 05:20:00,
2013-02-21 21:25:00,41.9,38.4,29.92,WNW,293,0.9,2.7,87,0.00,,,0.15,WUHU216HW,2013-02-22 05:25:00,
2013-02-21 21:30:00,41.9,38.4,29.93,South,180,0.9,3.6,87,0.00,,,0.15,WUHU216HW,2013-02-22 05:30:00,
2013-02-21 21:35:00,41.9,38.4,29.93,WSW,248,1.3,3.6,87,0.00,,,0.15,WUHU216HW,2013-02-22 05:35:00,
2013-02-21 21:40:00,41.9,38.4,29.93,SSW,203,3.1,3.1,87,0.00,,,0.15,WUHU216HW,2013-02-22 05:40:00,
2013-02-21 21:45:00,41.8,38.2,29.93,SSE,158,1.1,4.0,87,0.00,,,0.15,WUHU216HW,2013-02-22 05:45:00,
2013-02-21 21:50:00,41.8,38.2,29.93,South,180,2.0,4.5,87,0.00,,,0.15,WUHU216HW,2013-02-22 05:50:00,
2013-02-21 21:55:00,41.9,38.4,29.93,South,180,2.2,4.5,87,0.00,,,0.15,WUHU216HW,2013-02-22 05:55:00,
2013-02-21 22:00:00,41.8,38.2,29.93,South,180,4.5,5.1,87,0.00,,,0.15,WUHU216HW,2013-02-22 06:00:00,
2013-02-21 22:05:00,41.9,38.4,29.93,SSW,203,1.6,5.1,87,0.00,,,0.15,WUHU216HW,2013-02-22 06:05:00,
2013-02-21 22:10:00,41.9,38.4,29.92,SSW,203,0.4,5.1,87,0.00,,,0.15,WUHU216HW,2013-02-22 06:10:00,
2013-02-21 22:15:00,41.9,38.6,29.92,WSW,248,0.4,3.8,88,0.00,,,0.15,WUHU216HW,2013-02-22 06:15:00,
2013-02-21 22:20:00,41.9,38.6,29.92,SW,225,4.9,5.4,88,0.00,,,0.15,WUHU216HW,2013-02-22 06:20:00,
2013-02-21 22:25:00,41.9,38.4,29.92,SSW,203,2.7,5.4,87,0.00,,,0.15,WUHU216HW,2013-02-22 06:25:00,
2013-02-21 22:30:00,42.1,38.5,29.92,SSW,203,2.0,5.4,87,0.00,,,0.15,WUHU216HW,2013-02-22 06:30:00,
2013-02-21 22:35:00,41.9,38.4,29.92,SE,135,5.4,5.4,87,0.00,,,0.15,WUHU216HW,2013-02-22 06:35:00,
2013-02-21 22:40:00,41.9,38.4,29.92,South,180,1.6,5.4,87,0.00,,,0.15,WUHU216HW,2013-02-22 06:40:00,
2013-02-21 22:45:00,41.9,38.4,29.92,SE,135,0.2,2.5,87,0.00,,,0.15,WUHU216HW,2013-02-22 06:45:00,
2013-02-21 22:50:00,41.8,38.2,29.92,South,180,2.5,5.1,87,0.00,,,0.15,WUHU216HW,2013-02-22 06:50:00,
2013-02-21 22:55:00,41.8,38.2,29.92,South,180,1.8,5.1,87,0.00,,,0.15,WUHU216HW,2013-02-22 06:55:00,
2013-02-21 23:00:00,41.8,38.4,29.91,SSE,158,2.5,2.5,88,0.00,,,0.15,WUHU216HW,2013-02-22 07:00:00,
2013-02-21 23:05:00,41.8,38.4,29.91,SSW,203,2.0,3.8,88,0.00,,,0.15,WUHU216HW,2013-02-22 07:05:00,
2013-02-21 23:10:00,41.8,38.4,29.91,SSE,158,4.0,4.0,88,0.00,,,0.15,WUHU216HW,2013-02-22 07:10:00,
2013-02-21 23:15:00,41.8,38.4,29.91,South,180,2.5,6.7,88,0.00,,,0.15,WUHU216HW,2013-02-22 07:15:00,
2013-02-21 23:20:00,41.6,38.3,29.91,SSW,203,2.5,6.7,88,0.00,,,0.15,WUHU216HW,2013-02-22 07:20:00,
2013-02-21 23:25:00,41.8,38.2,29.91,SE,135,3.8,4.9,87,0.00,,,0.15,WUHU216HW,2013-02-22 07:25:00,
2013-02-21 23:30:00,41.8,38.4,29.91,SW,225,1.8,4.0,88,0.00,,,0.15,WUHU216HW,2013-02-22 07:30:00,
2013-02-21 23:35:00,41.6,38.3,29.91,South,180,2.5,4.0,88,0.00,,,0.15,WUHU216HW,2013-02-22 07:35:00,
2013-02-21 23:40:00,41.6,38.3,29.91,SE,135,1.8,3.1,88,0.00,,,0.15,WUHU216HW,2013-02-22 07:40:00,
2013-02-21 23:45:00,41.6,38.3,29.91,SSE,158,1.8,2.2,88,0.00,,,0.15,WUHU216HW,2013-02-22 07:45:00,
2013-02-21 23:50:00,41.6,38.3,29.91,South,180,4.0,4.0,88,0.00,,,0.15,WUHU216HW,2013-02-22 07:50:00,
2013-02-21 23:55:00,41.6,38.3,29.91,SSE,158,1.3,4.0,88,0.00,,,0.15,WUHU216HW,2013-02-22 07:55:00,